createdAt,value
2022-12-31T00:00:34.062Z,82.39
2022-12-31T00:03:02.636Z,82.68
2022-12-31T00:05:33.055Z,82.53
2022-12-31T00:08:01.774Z,82.23
2022-12-31T00:10:30.074Z,82.63
2022-12-31T00:12:58.189Z,82.48
2022-12-31T00:15:26.095Z,82.39
2022-12-31T00:17:54.084Z,82.20
2022-12-31T00:20:22.092Z,82.45
2022-12-31T00:22:51.443Z,82.60
2022-12-31T00:25:19.501Z,82.58
2022-12-31T00:27:47.528Z,82.55
2022-12-31T00:30:15.739Z,82.67
2022-12-31T00:32:43.962Z,82.70
2022-12-31T00:35:11.973Z,82.71
2022-12-31T00:37:40.179Z,82.74
2022-12-31T00:40:10.852Z,82.58
2022-12-31T00:42:38.947Z,82.79
2022-12-31T00:45:07.356Z,82.63
2022-12-31T00:47:35.287Z,83.03
2022-12-31T00:50:03.251Z,82.69
2022-12-31T00:52:31.402Z,82.82
2022-12-31T00:54:59.329Z,82.99
2022-12-31T00:57:28.792Z,82.76
2022-12-31T00:59:56.752Z,82.68
2022-12-31T01:02:24.977Z,82.72
2022-12-31T01:04:53.042Z,82.72
2022-12-31T01:07:21.129Z,82.86
2022-12-31T01:09:49.200Z,82.82
2022-12-31T01:12:17.142Z,82.74
2022-12-31T01:14:46.479Z,82.59
2022-12-31T01:17:14.715Z,82.74
2022-12-31T01:19:42.719Z,82.60
2022-12-31T01:22:10.833Z,82.41
2022-12-31T01:24:38.864Z,82.55
2022-12-31T01:27:06.806Z,82.69
2022-12-31T01:29:34.902Z,82.50
2022-12-31T01:32:04.395Z,82.37
2022-12-31T01:34:32.453Z,82.63
2022-12-31T01:37:00.419Z,82.40
2022-12-31T01:39:28.459Z,82.31
2022-12-31T01:41:56.463Z,82.60
2022-12-31T01:44:49.407Z,82.40
2022-12-31T01:47:20.495Z,82.42
2022-12-31T01:49:50.255Z,82.77
2022-12-31T01:52:21.468Z,82.67
2022-12-31T01:54:51.501Z,82.66
2022-12-31T01:57:20.101Z,82.68
2022-12-31T01:59:48.110Z,82.72
2022-12-31T02:02:17.040Z,82.54
2022-12-31T02:04:46.519Z,83.05
2022-12-31T02:07:14.891Z,83.00
2022-12-31T02:09:43.443Z,82.93
2022-12-31T02:12:11.719Z,83.05
2022-12-31T02:14:41.038Z,82.93
2022-12-31T02:17:12.035Z,83.21
2022-12-31T02:19:57.952Z,83.27
2022-12-31T02:22:34.632Z,83.23
2022-12-31T02:25:10.706Z,83.18
2022-12-31T02:27:43.108Z,83.05
2022-12-31T02:30:14.220Z,83.17
2022-12-31T02:33:05.964Z,83.30
2022-12-31T02:35:39.565Z,83.03
2022-12-31T02:38:10.626Z,83.01
2022-12-31T02:40:39.528Z,83.05
2022-12-31T02:43:07.897Z,82.75
2022-12-31T02:45:39.138Z,82.92
2022-12-31T02:48:14.609Z,82.99
2022-12-31T02:50:55.751Z,83.17
2022-12-31T02:53:33.946Z,82.97
2022-12-31T02:56:05.111Z,82.94
2022-12-31T02:58:49.284Z,82.79
2022-12-31T03:01:39.441Z,83.10
2022-12-31T03:04:21.379Z,83.31
2022-12-31T03:06:49.316Z,83.24
2022-12-31T03:09:49.947Z,83.24
2022-12-31T03:12:36.295Z,83.14
2022-12-31T03:15:22.867Z,83.42
2022-12-31T03:17:53.405Z,83.62
2022-12-31T03:20:39.482Z,83.44
2022-12-31T03:23:08.265Z,83.54
2022-12-31T03:25:35.461Z,83.54
2022-12-31T03:28:04.878Z,83.90
2022-12-31T03:30:33.409Z,83.83
2022-12-31T03:33:02.903Z,83.82
2022-12-31T03:35:31.137Z,83.64
2022-12-31T03:37:59.140Z,83.99
2022-12-31T03:40:27.982Z,83.90
2022-12-31T03:42:55.883Z,83.73
2022-12-31T03:45:23.873Z,83.88
2022-12-31T03:47:51.961Z,84.43
2022-12-31T03:50:21.608Z,84.18
2022-12-31T03:52:49.503Z,84.26
2022-12-31T03:55:17.522Z,84.82
2022-12-31T03:57:45.546Z,84.38
2022-12-31T04:00:14.644Z,84.64
2022-12-31T04:02:43.150Z,84.53
2022-12-31T04:05:11.494Z,84.40
2022-12-31T04:07:40.901Z,84.46
2022-12-31T04:10:10.614Z,84.67
2022-12-31T04:12:38.701Z,84.99
2022-12-31T04:15:07.385Z,84.61
2022-12-31T04:17:35.395Z,84.95
2022-12-31T04:20:03.446Z,84.61
2022-12-31T04:22:31.433Z,84.95
2022-12-31T04:25:00.901Z,85.18
2022-12-31T04:27:28.911Z,85.25
2022-12-31T04:29:56.887Z,85.39
2022-12-31T04:32:24.914Z,85.41
2022-12-31T04:34:52.896Z,85.69
2022-12-31T04:37:20.831Z,85.74
2022-12-31T04:39:48.735Z,85.76
2022-12-31T04:42:18.321Z,85.75
2022-12-31T04:44:46.424Z,85.19
2022-12-31T04:47:17.470Z,85.30
2022-12-31T04:49:49.826Z,85.58
2022-12-31T04:52:17.974Z,85.51
2022-12-31T04:54:45.919Z,85.71
2022-12-31T04:57:14.233Z,85.26
2022-12-31T04:59:43.757Z,85.17
2022-12-31T05:02:11.966Z,85.61
2022-12-31T05:04:40.053Z,85.38
2022-12-31T05:07:07.998Z,85.55
2022-12-31T05:09:36.030Z,85.79
2022-12-31T05:12:04.152Z,85.77
2022-12-31T05:14:32.141Z,85.96
2022-12-31T05:17:01.572Z,85.97
2022-12-31T05:19:29.559Z,86.05
2022-12-31T05:22:15.163Z,86.17
2022-12-31T05:24:43.134Z,86.26
2022-12-31T05:27:11.202Z,85.99
2022-12-31T05:29:39.332Z,86.10
2022-12-31T05:32:08.728Z,86.23
2022-12-31T05:34:36.742Z,86.47
2022-12-31T05:37:04.819Z,86.48
2022-12-31T05:39:32.805Z,86.67
2022-12-31T05:42:00.773Z,86.59
2022-12-31T05:44:28.857Z,86.56
2022-12-31T05:46:56.963Z,86.16
2022-12-31T05:49:26.456Z,86.62
2022-12-31T05:51:54.384Z,86.81
2022-12-31T05:54:22.419Z,86.62
2022-12-31T05:56:50.387Z,86.84
2022-12-31T05:59:18.765Z,86.51
2022-12-31T06:01:46.762Z,86.72
2022-12-31T06:04:14.744Z,86.57
2022-12-31T06:06:44.168Z,86.78
2022-12-31T06:09:12.224Z,86.40
2022-12-31T06:11:40.400Z,86.22
2022-12-31T06:14:08.551Z,86.14
2022-12-31T06:16:36.621Z,85.99
2022-12-31T06:19:04.997Z,85.91
2022-12-31T06:21:33.003Z,85.74
2022-12-31T06:24:02.382Z,85.87
2022-12-31T06:26:30.324Z,85.98
2022-12-31T06:28:58.448Z,85.92
2022-12-31T06:31:26.530Z,85.65
2022-12-31T06:33:54.613Z,85.75
2022-12-31T06:36:23.106Z,85.54
2022-12-31T06:38:51.131Z,85.58
2022-12-31T06:41:20.632Z,85.27
2022-12-31T06:43:49.203Z,85.15
2022-12-31T06:46:18.346Z,85.38
2022-12-31T06:48:46.591Z,85.27
2022-12-31T06:51:17.475Z,84.84
2022-12-31T06:53:46.151Z,84.70
2022-12-31T06:56:16.755Z,84.95
2022-12-31T06:58:47.251Z,85.51
2022-12-31T07:01:27.798Z,85.23
2022-12-31T07:04:01.045Z,85.22
2022-12-31T07:06:32.357Z,85.33
2022-12-31T07:09:06.387Z,85.32
2022-12-31T07:11:40.474Z,85.45
2022-12-31T07:14:20.375Z,85.05
2022-12-31T07:16:53.997Z,84.99
2022-12-31T07:19:26.755Z,85.16
2022-12-31T07:21:55.211Z,85.09
2022-12-31T07:24:23.832Z,84.81
2022-12-31T07:27:02.787Z,85.15
2022-12-31T07:29:39.261Z,84.96
2022-12-31T07:32:12.171Z,85.07
2022-12-31T07:34:46.062Z,85.11
2022-12-31T07:37:18.937Z,85.11
2022-12-31T07:39:49.834Z,85.10
2022-12-31T07:42:21.288Z,85.08
2022-12-31T07:44:59.243Z,84.96
2022-12-31T07:47:28.496Z,85.25
2022-12-31T07:49:57.442Z,85.27
2022-12-31T07:52:25.883Z,85.01
2022-12-31T07:54:54.002Z,85.04
2022-12-31T07:57:22.699Z,84.88
2022-12-31T08:00:00.176Z,84.76
2022-12-31T08:02:40.121Z,84.64
2022-12-31T08:05:12.955Z,84.30
2022-12-31T08:07:44.889Z,84.46
2022-12-31T08:10:18.376Z,84.39
2022-12-31T08:12:47.412Z,84.72
2022-12-31T08:15:16.442Z,84.54
2022-12-31T08:17:46.349Z,84.52
2022-12-31T08:20:15.343Z,84.66
2022-12-31T08:23:03.375Z,84.65
2022-12-31T08:25:36.643Z,84.61
2022-12-31T08:28:09.263Z,84.64
2022-12-31T08:30:42.180Z,84.63
2022-12-31T08:33:15.630Z,84.38
2022-12-31T08:35:53.029Z,84.34
2022-12-31T08:38:32.853Z,84.47
2022-12-31T08:41:04.839Z,83.94
2022-12-31T08:43:37.704Z,84.67
2022-12-31T08:46:09.270Z,84.24
2022-12-31T08:48:40.522Z,84.49
2022-12-31T08:51:11.595Z,84.55
2022-12-31T08:53:40.110Z,84.65
2022-12-31T08:56:11.629Z,84.28
2022-12-31T08:58:46.999Z,84.40
2022-12-31T09:01:19.126Z,84.41
2022-12-31T09:03:59.235Z,84.22
2022-12-31T09:06:29.101Z,84.24
2022-12-31T09:09:02.930Z,84.23
2022-12-31T09:11:34.104Z,84.23
2022-12-31T09:14:22.769Z,84.10
2022-12-31T09:17:04.726Z,83.94
2022-12-31T09:19:40.880Z,84.42
2022-12-31T09:22:09.039Z,83.82
2022-12-31T09:24:37.468Z,84.43
2022-12-31T09:27:07.395Z,84.70
2022-12-31T09:29:44.806Z,84.69
2022-12-31T09:32:20.360Z,84.56
2022-12-31T09:34:55.494Z,84.46
2022-12-31T09:37:26.932Z,84.41
2022-12-31T09:39:58.171Z,84.30
2022-12-31T09:42:44.163Z,84.40
2022-12-31T09:45:25.525Z,84.41
2022-12-31T09:48:06.794Z,84.27
2022-12-31T09:50:51.428Z,84.28
2022-12-31T09:53:30.156Z,84.46
2022-12-31T09:55:59.179Z,84.75
2022-12-31T09:58:34.109Z,84.25
2022-12-31T10:01:05.395Z,84.36
2022-12-31T10:03:44.772Z,84.00
2022-12-31T10:06:26.435Z,84.03
2022-12-31T10:09:04.255Z,84.23
2022-12-31T10:11:35.304Z,83.83
2022-12-31T10:14:15.116Z,83.61
2022-12-31T10:16:50.858Z,84.02
2022-12-31T10:19:45.948Z,83.93
2022-12-31T10:22:26.065Z,84.21
2022-12-31T10:25:03.578Z,84.17
2022-12-31T10:27:39.841Z,84.27
2022-12-31T10:30:14.522Z,84.85
2022-12-31T10:32:44.291Z,84.63
2022-12-31T10:35:30.599Z,84.53
2022-12-31T10:38:04.355Z,84.65
2022-12-31T10:40:40.236Z,84.65
2022-12-31T10:43:29.301Z,84.51
2022-12-31T10:46:22.879Z,84.63
2022-12-31T10:49:06.241Z,84.50
2022-12-31T10:52:01.026Z,84.53
2022-12-31T10:54:51.391Z,84.22
2022-12-31T10:57:36.649Z,84.23
2022-12-31T11:00:13.575Z,84.22
2022-12-31T11:03:05.954Z,84.76
2022-12-31T11:05:51.492Z,84.17
2022-12-31T11:08:30.198Z,84.32
2022-12-31T11:11:09.675Z,84.48
2022-12-31T11:13:48.867Z,84.08
2022-12-31T11:16:22.569Z,84.16
2022-12-31T11:18:55.115Z,84.48
2022-12-31T11:21:29.243Z,84.31
2022-12-31T11:24:04.796Z,84.40
2022-12-31T11:26:42.370Z,84.17
2022-12-31T11:29:16.775Z,84.33
2022-12-31T11:31:52.480Z,84.21
2022-12-31T11:34:41.366Z,83.92
2022-12-31T11:37:19.106Z,83.77
2022-12-31T11:39:51.281Z,84.35
2022-12-31T11:42:28.322Z,83.98
2022-12-31T11:45:00.628Z,84.22
2022-12-31T11:48:20.251Z,84.63
2022-12-31T11:50:33.977Z,83.82
2022-12-31T11:53:08.351Z,83.88
2022-12-31T11:55:40.618Z,84.00
2022-12-31T11:58:16.059Z,84.09
2022-12-31T12:00:47.313Z,84.77
2022-12-31T12:03:15.435Z,84.33
2022-12-31T12:05:43.690Z,83.96
2022-12-31T12:08:13.347Z,83.94
2022-12-31T12:10:43.422Z,84.14
2022-12-31T12:13:13.762Z,84.10
2022-12-31T12:15:46.396Z,83.91
2022-12-31T12:18:20.409Z,84.68
2022-12-31T12:20:48.672Z,84.34
2022-12-31T12:23:18.641Z,84.18
2022-12-31T12:25:46.715Z,84.56
2022-12-31T12:28:22.300Z,84.55
2022-12-31T12:30:56.437Z,85.07
2022-12-31T12:33:24.596Z,84.75
2022-12-31T12:35:52.844Z,84.21
2022-12-31T12:38:25.693Z,84.66
2022-12-31T12:40:54.920Z,84.20
2022-12-31T12:43:24.160Z,84.26
2022-12-31T12:45:53.448Z,84.13
2022-12-31T12:48:26.905Z,84.23
2022-12-31T12:50:55.064Z,83.87
2022-12-31T12:53:33.699Z,83.90
2022-12-31T12:56:08.627Z,83.87
2022-12-31T12:58:41.571Z,83.65
2022-12-31T13:01:12.852Z,83.53
2022-12-31T13:06:52.797Z,83.81
2022-12-31T13:09:26.813Z,84.10
2022-12-31T13:12:07.171Z,84.15
2022-12-31T13:14:44.684Z,84.40
2022-12-31T13:17:26.639Z,84.45
2022-12-31T13:19:58.107Z,84.22
2022-12-31T13:22:30.868Z,84.06
2022-12-31T13:25:02.063Z,84.51
2022-12-31T13:27:35.362Z,84.21
2022-12-31T13:30:04.889Z,84.00
2022-12-31T13:32:39.352Z,83.59
2022-12-31T13:35:26.962Z,83.39
2022-12-31T13:38:05.149Z,83.98
2022-12-31T13:40:37.340Z,83.39
2022-12-31T13:43:09.312Z,83.22
2022-12-31T13:45:40.501Z,82.97
2022-12-31T13:48:14.450Z,83.07
2022-12-31T13:50:46.401Z,83.10
2022-12-31T13:53:20.260Z,83.26
2022-12-31T13:55:56.691Z,82.91
2022-12-31T13:58:32.255Z,82.70
2022-12-31T14:01:04.803Z,82.66
2022-12-31T14:03:36.061Z,82.60
2022-12-31T14:06:08.398Z,82.40
2022-12-31T14:08:37.921Z,81.78
2022-12-31T14:11:08.246Z,81.97
2022-12-31T14:13:46.163Z,81.54
2022-12-31T14:16:18.899Z,82.00
2022-12-31T14:18:49.638Z,81.92
2022-12-31T14:21:21.789Z,81.73
2022-12-31T14:23:54.477Z,81.69
2022-12-31T14:26:30.575Z,81.67
2022-12-31T14:29:04.098Z,81.69
2022-12-31T14:31:41.568Z,81.62
2022-12-31T14:34:34.201Z,81.60
2022-12-31T14:37:34.406Z,81.54
2022-12-31T14:40:26.881Z,81.56
2022-12-31T14:43:02.509Z,81.27
2022-12-31T14:45:37.455Z,81.42
2022-12-31T14:48:12.787Z,81.27
2022-12-31T14:50:49.607Z,81.24
2022-12-31T14:53:38.648Z,81.33
2022-12-31T14:56:26.407Z,81.24
2022-12-31T14:58:58.902Z,80.88
2022-12-31T15:01:28.580Z,81.00
2022-12-31T15:03:58.220Z,80.36
2022-12-31T15:06:44.298Z,80.84
2022-12-31T15:09:18.053Z,80.90
2022-12-31T15:12:03.746Z,81.08
2022-12-31T15:14:44.253Z,81.07
2022-12-31T15:17:18.410Z,81.31
2022-12-31T15:20:04.154Z,80.88
2022-12-31T15:22:32.181Z,81.03
2022-12-31T15:25:01.437Z,81.29
2022-12-31T15:27:35.479Z,80.93
2022-12-31T15:30:06.335Z,81.11
2022-12-31T15:32:37.393Z,80.93
2022-12-31T15:35:25.496Z,80.96
2022-12-31T15:37:59.996Z,80.83
2022-12-31T15:40:29.280Z,80.88
2022-12-31T15:43:00.353Z,80.94
2022-12-31T15:45:33.745Z,81.22
2022-12-31T15:48:03.315Z,81.13
2022-12-31T15:50:31.536Z,80.79
2022-12-31T15:53:01.873Z,80.97
2022-12-31T15:55:31.801Z,80.92
2022-12-31T15:58:02.084Z,81.12
2022-12-31T16:00:37.967Z,81.12
2022-12-31T16:03:06.363Z,81.01
2022-12-31T16:05:35.590Z,81.02
2022-12-31T16:08:03.734Z,81.40
2022-12-31T16:10:38.262Z,81.46
2022-12-31T16:13:06.446Z,81.37
2022-12-31T16:15:36.245Z,81.31
2022-12-31T16:18:06.198Z,80.57
2022-12-31T16:20:35.668Z,80.81
2022-12-31T16:23:04.529Z,81.03
2022-12-31T16:25:33.854Z,81.38
2022-12-31T16:28:03.188Z,81.26
2022-12-31T16:30:36.064Z,81.04
2022-12-31T16:33:06.846Z,81.15
2022-12-31T16:35:36.535Z,81.10
2022-12-31T16:38:11.351Z,80.84
2022-12-31T16:40:40.025Z,80.98
2022-12-31T16:43:23.013Z,80.67
2022-12-31T16:45:51.270Z,80.41
2022-12-31T16:48:21.388Z,80.40
2022-12-31T16:50:58.855Z,80.49
2022-12-31T16:53:32.850Z,80.13
2022-12-31T16:56:03.656Z,80.23
2022-12-31T16:58:32.820Z,80.24
2022-12-31T17:01:03.960Z,80.21
2022-12-31T17:03:33.441Z,80.26
2022-12-31T17:06:14.192Z,80.26
2022-12-31T17:08:43.022Z,79.99
2022-12-31T17:11:23.553Z,80.12
2022-12-31T17:13:56.619Z,80.27
2022-12-31T17:16:25.141Z,80.21
2022-12-31T17:18:54.819Z,79.72
2022-12-31T17:21:32.966Z,79.90
2022-12-31T17:24:02.262Z,79.92
2022-12-31T17:26:32.232Z,80.11
2022-12-31T17:29:01.598Z,79.84
2022-12-31T17:31:31.393Z,79.62
2022-12-31T17:34:20.254Z,79.46
2022-12-31T17:37:00.781Z,79.34
2022-12-31T17:39:40.456Z,79.96
2022-12-31T17:42:10.361Z,79.43
2022-12-31T17:44:40.050Z,79.13
2022-12-31T17:47:09.318Z,79.04
2022-12-31T17:49:37.891Z,79.20
2022-12-31T17:52:11.562Z,79.69
2022-12-31T17:54:39.937Z,79.58
2022-12-31T17:57:08.799Z,79.94
2022-12-31T17:59:37.263Z,80.18
2022-12-31T18:02:06.570Z,80.52
2022-12-31T18:04:59.859Z,80.21
2022-12-31T18:07:34.729Z,79.90
2022-12-31T18:10:04.937Z,80.54
2022-12-31T18:12:33.730Z,80.62
2022-12-31T18:15:01.790Z,81.00
2022-12-31T18:17:30.176Z,81.29
2022-12-31T18:20:06.284Z,80.88
2022-12-31T18:22:36.113Z,81.58
2022-12-31T18:25:04.486Z,81.25
2022-12-31T18:27:34.167Z,81.33
2022-12-31T18:30:05.567Z,81.69
2022-12-31T18:32:36.100Z,81.64
2022-12-31T18:35:04.381Z,81.89
2022-12-31T18:37:33.521Z,81.91
2022-12-31T18:40:03.099Z,81.44
2022-12-31T18:42:31.656Z,81.79
2022-12-31T18:44:59.630Z,82.31
2022-12-31T18:47:30.262Z,82.80
2022-12-31T18:50:02.385Z,82.61
2022-12-31T18:52:31.575Z,82.83
2022-12-31T18:54:59.759Z,82.61
2022-12-31T18:57:29.237Z,82.49
2022-12-31T19:00:04.847Z,82.53
2022-12-31T19:02:33.815Z,82.71
2022-12-31T19:05:06.439Z,82.57
2022-12-31T19:07:37.551Z,82.65
2022-12-31T19:10:06.158Z,82.53
2022-12-31T19:12:40.257Z,82.51
2022-12-31T19:15:20.079Z,82.25
2022-12-31T19:17:48.117Z,81.90
2022-12-31T19:20:16.268Z,82.11
2022-12-31T19:22:44.181Z,82.00
2022-12-31T19:25:17.995Z,81.64
2022-12-31T19:27:47.739Z,81.88
2022-12-31T19:30:20.216Z,81.69
2022-12-31T19:32:48.354Z,81.37
2022-12-31T19:35:16.949Z,81.57
2022-12-31T19:37:45.969Z,81.32
2022-12-31T19:40:15.005Z,81.74
2022-12-31T19:42:43.069Z,81.61
2022-12-31T19:45:16.262Z,81.82
2022-12-31T19:47:44.686Z,81.71
2022-12-31T19:50:13.837Z,82.07
2022-12-31T19:52:42.232Z,81.34
2022-12-31T19:55:13.469Z,81.48
2022-12-31T19:57:41.819Z,81.85
2022-12-31T20:00:11.159Z,81.80
2022-12-31T20:02:40.830Z,81.62
2022-12-31T20:05:09.567Z,81.43
2022-12-31T20:07:37.701Z,81.63
2022-12-31T20:10:06.400Z,81.29
2022-12-31T20:12:39.056Z,81.38
2022-12-31T20:15:10.729Z,81.53
2022-12-31T20:17:40.280Z,81.38
2022-12-31T20:20:08.820Z,81.34
2022-12-31T20:22:36.799Z,81.34
2022-12-31T20:25:05.014Z,81.49
2022-12-31T20:27:33.565Z,81.48
2022-12-31T20:30:01.554Z,81.11
2022-12-31T20:32:30.840Z,81.25
2022-12-31T20:35:00.252Z,81.34
2022-12-31T20:37:28.369Z,81.32
2022-12-31T20:39:56.352Z,81.28
2022-12-31T20:42:24.492Z,81.32
2022-12-31T20:44:52.532Z,81.52
2022-12-31T20:47:20.415Z,81.58
2022-12-31T20:52:37.959Z,81.56
2022-12-31T20:55:06.397Z,81.18
2022-12-31T20:57:34.400Z,81.40
2022-12-31T21:00:02.561Z,81.25
2022-12-31T21:02:42.247Z,81.32
2022-12-31T21:05:11.260Z,81.32
2022-12-31T21:07:41.186Z,81.04
2022-12-31T21:10:09.712Z,81.35
2022-12-31T21:12:53.412Z,81.12
2022-12-31T21:15:22.232Z,81.34
2022-12-31T21:17:50.264Z,81.21
2022-12-31T21:20:18.338Z,81.28
2022-12-31T21:22:47.779Z,81.26
2022-12-31T21:25:15.920Z,81.28
2022-12-31T21:27:44.056Z,81.51
2022-12-31T21:30:20.577Z,81.44
2022-12-31T21:32:48.723Z,81.65
2022-12-31T21:38:19.610Z,81.14
2022-12-31T21:40:47.712Z,81.43
2022-12-31T21:43:35.584Z,81.14
2022-12-31T21:46:07.541Z,81.24
2022-12-31T21:48:35.733Z,81.10
2022-12-31T21:51:08.322Z,81.49
2022-12-31T21:53:37.874Z,81.66
2022-12-31T21:56:11.982Z,81.49
2022-12-31T21:58:40.901Z,81.67
2022-12-31T22:01:28.260Z,81.41
2022-12-31T22:03:56.376Z,81.57
2022-12-31T22:06:25.219Z,81.44
2022-12-31T22:08:55.463Z,81.57
2022-12-31T22:11:25.173Z,81.32
2022-12-31T22:13:55.253Z,81.75
2022-12-31T22:16:30.618Z,81.42
2022-12-31T22:19:05.957Z,81.50
2022-12-31T22:21:34.034Z,81.34
2022-12-31T22:24:05.614Z,81.52
2022-12-31T22:26:33.660Z,81.51
2022-12-31T22:29:01.688Z,81.78
2022-12-31T22:31:31.296Z,81.41
2022-12-31T22:33:59.920Z,81.52
2022-12-31T22:36:28.080Z,81.60
2022-12-31T22:38:57.412Z,81.51
2022-12-31T22:41:27.263Z,81.62
2022-12-31T22:44:02.702Z,81.45
2022-12-31T22:46:31.487Z,81.77
2022-12-31T22:49:00.176Z,82.05
2022-12-31T22:51:58.709Z,81.90
2022-12-31T22:54:16.529Z,81.95
2022-12-31T22:56:45.939Z,81.86
2022-12-31T22:59:13.909Z,81.94
2022-12-31T23:01:42.040Z,81.89
2022-12-31T23:04:10.118Z,82.25
2022-12-31T23:06:43.702Z,81.92
2022-12-31T23:09:29.023Z,81.91
2022-12-31T23:11:58.644Z,81.89
2022-12-31T23:14:44.327Z,82.15
2022-12-31T23:17:33.112Z,81.78
2022-12-31T23:20:18.539Z,81.92
2022-12-31T23:23:05.707Z,81.91
2022-12-31T23:25:33.823Z,81.98
2022-12-31T23:28:03.453Z,81.68
2022-12-31T23:30:31.489Z,81.76
2022-12-31T23:32:59.809Z,81.92
2022-12-31T23:35:27.776Z,81.60
2022-12-31T23:37:55.760Z,81.62
2022-12-31T23:40:23.644Z,82.15
2022-12-31T23:42:51.660Z,81.80
2022-12-31T23:45:21.066Z,81.91
2022-12-31T23:47:49.113Z,81.77
2022-12-31T23:50:17.182Z,82.08
2022-12-31T23:52:45.224Z,81.79
2022-12-31T23:55:13.132Z,81.88
2022-12-31T23:57:41.102Z,81.98
